LFOT/TUF METAR and TAF weather

Enter ICAO airport designator
Station Type Date Time Source
LFOT METAR 2022/05/24 11:30 UTC NOAA

LFOT 241130Z AUTO 26005KT 200V320 9999 BKN038 BKN048 OVC062 16/08 Q1011 TEMPO 25015G25KT 4000 -SHRA SCT030TCU


Station Type Date Time Source
LFOT Decoded METAR 2022/05/24 11:30 UTC NOAA

Tours, France (LFOT) 47-27N 000-43E 112M
May 24, 2022 - 07:30 AM EDT / 2022.05.24 1130 UTC
Wind: from the W (260 degrees) at 6 MPH (5 KT) (direction variable):0
Visibility: greater than 7 mile(s):0
Sky conditions: overcast
Weather: Towering cumulus clouds observed
Temperature: 60 F (16 C)
Dew Point: 46 F (8 C)
Relative Humidity: 58%
Pressure (altimeter): 29.85 in. Hg (1011 hPa)
ob: LFOT 241130Z AUTO 26005KT 200V320 9999 BKN038 BKN048 OVC062 16/08 Q1011 TEMPO 25015G25KT 4000 -SHRA SCT030TCU
cycle: 11

Station Type Date Time Source
LFOT TAF 2022/05/24 12:43 UTC NOAA

TAF LFOT 241100Z 2412/2512 26008KT 9999 SCT035
TEMPO 2412/2420 -SHRA BKN030TCU PROB40
TEMPO 2413/2418 25015G25KT 4000 SHRA SCT030CB
BECMG 2420/2422 CAVOK PROB30
TEMPO 2502/2507 0600 FG VV///

Example: see airport list